createdAt,value
2022-10-14T00:02:16.764Z,100840.97
2022-10-14T00:04:44.382Z,100837.69
2022-10-14T00:07:12.055Z,100844.06
2022-10-14T00:09:41.998Z,100831.31
2022-10-14T00:12:11.025Z,100839.53
2022-10-14T00:14:38.653Z,100835.00
2022-10-14T00:17:06.347Z,100839.13
2022-10-14T00:19:33.906Z,100827.00
2022-10-14T00:22:01.526Z,100828.41
2022-10-14T00:24:29.236Z,100829.00
2022-10-14T00:26:56.843Z,100832.09
2022-10-14T00:29:25.763Z,100838.66
2022-10-14T00:31:53.692Z,100829.22
2022-10-14T00:34:21.326Z,100840.66
2022-10-14T00:36:48.998Z,100847.72
2022-10-14T00:39:16.653Z,100847.88
2022-10-14T00:41:44.883Z,100848.06
2022-10-14T00:44:45.726Z,100845.78
2022-10-14T00:47:14.581Z,100848.84
2022-10-14T00:49:43.416Z,100846.34
2022-10-14T00:52:15.371Z,100846.84
2022-10-14T00:54:45.535Z,100842.91
2022-10-14T00:57:13.208Z,100842.91
2022-10-14T00:59:40.797Z,100843.09
2022-10-14T01:02:08.301Z,100841.03
2022-10-14T01:04:39.011Z,100842.97
2022-10-14T01:07:12.273Z,100839.50
2022-10-14T01:09:42.475Z,100842.38
2022-10-14T01:12:28.581Z,100833.97
2022-10-14T01:15:04.942Z,100832.34
2022-10-14T01:17:39.620Z,100835.63
2022-10-14T01:20:39.661Z,100832.09
2022-10-14T01:23:19.197Z,100822.63
2022-10-14T01:25:54.574Z,100819.47
2022-10-14T01:28:27.058Z,100825.94
2022-10-14T01:30:59.558Z,100827.56
2022-10-14T01:33:29.395Z,100820.00
2022-10-14T01:36:02.658Z,100810.09
2022-10-14T01:38:32.803Z,100814.09
2022-10-14T01:41:04.913Z,100800.06
2022-10-14T01:43:33.319Z,100805.03
2022-10-14T01:46:04.516Z,100801.09
2022-10-14T01:48:33.931Z,100797.41
2022-10-14T01:51:03.036Z,100803.16
2022-10-14T01:53:33.086Z,100799.06
2022-10-14T01:56:00.859Z,100801.69
2022-10-14T01:58:29.115Z,100799.28
2022-10-14T02:00:57.461Z,100794.72
2022-10-14T02:03:26.252Z,100791.06
2022-10-14T02:05:56.515Z,100791.88
2022-10-14T02:08:30.308Z,100790.22
2022-10-14T02:11:07.974Z,100788.13
2022-10-14T02:13:45.080Z,100783.63
2022-10-14T02:16:17.449Z,100785.66
2022-10-14T02:18:52.536Z,100771.91
2022-10-14T02:21:24.114Z,100767.59
2022-10-14T02:23:56.788Z,100764.72
2022-10-14T02:26:25.541Z,100767.59
2022-10-14T02:28:54.525Z,100766.09
2022-10-14T02:31:22.128Z,100762.97
2022-10-14T02:33:53.031Z,100765.50
2022-10-14T02:36:22.997Z,100759.34
2022-10-14T02:38:51.398Z,100755.84
2022-10-14T02:41:20.788Z,100756.50
2022-10-14T02:43:48.266Z,100747.22
2022-10-14T02:46:15.736Z,100750.31
2022-10-14T02:48:43.202Z,100744.75
2022-10-14T02:51:12.011Z,100741.69
2022-10-14T02:53:39.506Z,100743.31
2022-10-14T02:56:07.865Z,100740.47
2022-10-14T02:58:35.410Z,100735.28
2022-10-14T03:01:02.930Z,100740.25
2022-10-14T03:03:30.409Z,100736.09
2022-10-14T03:05:57.848Z,100733.41
2022-10-14T03:08:26.670Z,100728.91
2022-10-14T03:10:54.146Z,100727.28
2022-10-14T03:13:21.681Z,100725.00
2022-10-14T03:15:49.719Z,100725.59
2022-10-14T03:18:17.482Z,100722.13
2022-10-14T03:20:45.485Z,100726.44
2022-10-14T03:23:14.515Z,100726.63
2022-10-14T03:25:44.673Z,100718.66
2022-10-14T03:28:12.232Z,100720.50
2022-10-14T03:30:39.946Z,100721.53
2022-10-14T03:33:08.440Z,100727.09
2022-10-14T03:35:36.018Z,100710.66
2022-10-14T03:38:03.904Z,100710.03
2022-10-14T03:40:31.525Z,100707.97
2022-10-14T03:43:01.347Z,100710.44
2022-10-14T03:45:29.380Z,100714.75
2022-10-14T03:47:57.147Z,100715.94
2022-10-14T03:50:24.698Z,100707.50
2022-10-14T03:52:55.600Z,100703.81
2022-10-14T03:55:23.407Z,100700.13
2022-10-14T03:57:51.137Z,100692.91
2022-10-14T04:00:20.153Z,100694.34
2022-10-14T04:02:47.745Z,100699.88
2022-10-14T04:05:15.399Z,100693.75
2022-10-14T04:07:43.166Z,100690.84
2022-10-14T04:10:10.707Z,100697.41
2022-10-14T04:12:40.064Z,100697.22
2022-10-14T04:15:08.141Z,100693.91
2022-10-14T04:17:36.945Z,100692.91
2022-10-14T04:20:05.105Z,100697.63
2022-10-14T04:22:33.213Z,100699.69
2022-10-14T04:25:00.754Z,100695.94
2022-10-14T04:27:28.449Z,100696.75
2022-10-14T04:29:55.896Z,100693.00
2022-10-14T04:32:23.684Z,100689.38
2022-10-14T04:34:53.485Z,100697.81
2022-10-14T04:37:20.955Z,100695.13
2022-10-14T04:39:48.709Z,100683.41
2022-10-14T04:42:16.193Z,100682.16
2022-10-14T04:44:43.676Z,100679.09
2022-10-14T04:47:11.148Z,100681.16
2022-10-14T04:49:38.594Z,100670.28
2022-10-14T04:52:07.477Z,100672.13
2022-10-14T04:54:34.975Z,100677.25
2022-10-14T04:57:02.644Z,100665.94
2022-10-14T04:59:30.112Z,100673.78
2022-10-14T05:01:57.623Z,100664.72
2022-10-14T05:04:25.132Z,100662.84
2022-10-14T05:06:52.568Z,100667.59
2022-10-14T05:09:21.399Z,100658.75
2022-10-14T05:11:48.905Z,100659.56
2022-10-14T05:14:16.416Z,100653.59
2022-10-14T05:16:43.853Z,100654.63
2022-10-14T05:19:11.391Z,100654.44
2022-10-14T05:21:38.941Z,100650.72
2022-10-14T05:24:06.887Z,100655.69
2022-10-14T05:26:35.650Z,100651.75
2022-10-14T05:29:03.105Z,100654.84
2022-10-14T05:31:30.566Z,100652.72
2022-10-14T05:33:58.027Z,100647.38
2022-10-14T05:36:25.496Z,100650.28
2022-10-14T05:38:56.293Z,100647.00
2022-10-14T05:41:24.043Z,100653.34
2022-10-14T05:43:52.850Z,100648.25
2022-10-14T05:46:20.402Z,100650.03
2022-10-14T05:48:47.853Z,100647.19
2022-10-14T05:51:15.522Z,100644.13
2022-10-14T05:53:43.540Z,100643.28
2022-10-14T05:56:11.198Z,100648.63
2022-10-14T05:58:38.693Z,100643.28
2022-10-14T06:01:09.303Z,100642.25
2022-10-14T06:03:36.913Z,100640.88
2022-10-14T06:06:04.406Z,100641.47
2022-10-14T06:08:31.868Z,100637.16
2022-10-14T06:10:59.380Z,100639.00
2022-10-14T06:13:27.374Z,100645.78
2022-10-14T06:15:54.860Z,100638.00
2022-10-14T06:18:23.681Z,100641.31
2022-10-14T06:20:54.402Z,100629.41
2022-10-14T06:23:22.152Z,100638.03
2022-10-14T06:25:49.620Z,100633.91
2022-10-14T06:28:17.214Z,100638.63
2022-10-14T06:30:50.268Z,100633.47
2022-10-14T06:33:17.797Z,100641.50
2022-10-14T06:35:46.788Z,100634.97
2022-10-14T06:38:14.490Z,100639.47
2022-10-14T06:40:42.007Z,100643.13
2022-10-14T06:43:10.167Z,100639.84
2022-10-14T06:45:37.647Z,100643.38
2022-10-14T06:48:05.767Z,100644.41
2022-10-14T06:50:33.258Z,100641.75
2022-10-14T06:53:02.068Z,100644.41
2022-10-14T06:55:29.758Z,100646.28
2022-10-14T06:57:57.251Z,100651.19
2022-10-14T07:00:25.248Z,100640.31
2022-10-14T07:02:52.805Z,100641.34
2022-10-14T07:05:20.328Z,100638.25
2022-10-14T07:07:47.866Z,100640.13
2022-10-14T07:10:16.984Z,100633.97
2022-10-14T07:12:44.538Z,100631.69
2022-10-14T07:15:12.048Z,100633.56
2022-10-14T07:17:40.162Z,100635.81
2022-10-14T07:20:08.705Z,100642.00
2022-10-14T07:22:38.884Z,100632.34
2022-10-14T07:25:08.072Z,100632.94
2022-10-14T07:27:36.992Z,100625.75
2022-10-14T07:30:05.990Z,100627.00
2022-10-14T07:32:36.807Z,100626.38
2022-10-14T07:35:04.759Z,100633.59
2022-10-14T07:37:32.236Z,100630.72
2022-10-14T07:39:59.705Z,100640.59
2022-10-14T07:42:27.200Z,100639.34
2022-10-14T07:44:57.589Z,100637.72
2022-10-14T07:47:25.102Z,100642.88
2022-10-14T07:49:52.575Z,100635.66
2022-10-14T07:52:20.059Z,100642.03
2022-10-14T07:54:47.821Z,100628.63
2022-10-14T07:57:16.693Z,100632.38
2022-10-14T07:59:44.207Z,100644.75
2022-10-14T08:02:13.697Z,100630.72
2022-10-14T08:04:41.272Z,100637.50
2022-10-14T08:07:08.797Z,100638.31
2022-10-14T08:09:37.053Z,100638.53
2022-10-14T08:15:11.314Z,100624.94
2022-10-14T08:17:40.180Z,100633.59
2022-10-14T08:20:08.566Z,100627.63
2022-10-14T08:22:36.107Z,100616.72
2022-10-14T08:25:03.655Z,100631.53
2022-10-14T08:27:31.242Z,100623.31
2022-10-14T08:29:58.731Z,100627.25
2022-10-14T08:32:26.227Z,100627.84
2022-10-14T08:34:55.880Z,100630.94
2022-10-14T08:37:23.715Z,100621.47
2022-10-14T08:39:51.173Z,100625.63
2022-10-14T08:42:29.389Z,100623.31
2022-10-14T08:44:59.047Z,100617.94
2022-10-14T08:47:38.837Z,100622.47
2022-10-14T08:50:10.890Z,100613.84
2022-10-14T08:52:41.172Z,100610.97
2022-10-14T08:55:18.836Z,100617.94
2022-10-14T08:57:50.463Z,100615.28
2022-10-14T09:00:18.930Z,100617.34
2022-10-14T09:02:48.619Z,100615.50
2022-10-14T09:05:19.228Z,100606.03
2022-10-14T09:07:47.445Z,100608.88
2022-10-14T09:10:19.974Z,100613.22
2022-10-14T09:12:47.733Z,100611.34
2022-10-14T09:15:21.666Z,100608.09
2022-10-14T09:17:53.559Z,100614.28
2022-10-14T09:20:23.533Z,100614.47
2022-10-14T09:22:59.158Z,100608.28
2022-10-14T09:25:27.040Z,100603.06
2022-10-14T09:27:54.537Z,100587.81
2022-10-14T09:30:22.202Z,100590.31
2022-10-14T09:32:51.124Z,100583.09
2022-10-14T09:35:25.802Z,100581.25
2022-10-14T09:37:54.003Z,100571.97
2022-10-14T09:40:33.569Z,100572.75
2022-10-14T09:43:05.385Z,100580.41
2022-10-14T09:45:49.388Z,100576.66
2022-10-14T09:48:18.694Z,100571.69
2022-10-14T09:50:52.590Z,100563.84
2022-10-14T09:53:27.134Z,100560.13
2022-10-14T09:55:56.364Z,100550.97
2022-10-14T09:58:30.175Z,100542.63
2022-10-14T10:00:58.343Z,100538.09
2022-10-14T10:03:27.656Z,100534.56
2022-10-14T10:06:05.889Z,100529.72
2022-10-14T10:08:34.135Z,100536.38
2022-10-14T10:11:06.743Z,100533.81
2022-10-14T10:13:44.420Z,100529.63
2022-10-14T10:16:21.915Z,100527.09
2022-10-14T10:18:49.529Z,100523.44
2022-10-14T10:21:19.981Z,100520.53
2022-10-14T10:23:52.690Z,100524.34
2022-10-14T10:26:25.928Z,100530.91
2022-10-14T10:28:55.153Z,100532.09
2022-10-14T10:31:33.183Z,100528.47
2022-10-14T10:34:07.776Z,100530.81
2022-10-14T10:36:39.336Z,100534.56
2022-10-14T10:39:15.366Z,100527.09
2022-10-14T10:41:58.379Z,100525.75
2022-10-14T10:44:51.283Z,100519.72
2022-10-14T10:47:32.960Z,100518.03
2022-10-14T10:50:10.089Z,100512.66
2022-10-14T10:52:49.287Z,100505.19
2022-10-14T10:55:24.118Z,100510.56
2022-10-14T10:58:02.618Z,100503.56
2022-10-14T11:00:36.870Z,100506.78
2022-10-14T11:03:18.093Z,100493.31
2022-10-14T11:05:54.064Z,100497.50
2022-10-14T11:08:50.091Z,100488.00
2022-10-14T11:11:40.421Z,100495.88
2022-10-14T11:14:17.042Z,100495.63
2022-10-14T11:16:50.067Z,100495.84
2022-10-14T11:19:22.443Z,100486.59
2022-10-14T11:21:55.375Z,100482.31
2022-10-14T11:24:29.722Z,100480.03
2022-10-14T11:27:01.942Z,100476.91
2022-10-14T11:30:06.761Z,100469.59
2022-10-14T11:32:42.433Z,100463.91
2022-10-14T11:35:19.842Z,100454.06
2022-10-14T11:37:56.941Z,100461.94
2022-10-14T11:40:28.831Z,100451.72
2022-10-14T11:43:10.928Z,100454.06
2022-10-14T11:45:46.603Z,100450.75
2022-10-14T11:48:23.966Z,100450.63
2022-10-14T11:50:56.196Z,100442.56
2022-10-14T11:53:27.332Z,100430.47
2022-10-14T11:56:01.904Z,100428.84
2022-10-14T11:58:31.120Z,100426.91
2022-10-14T12:01:04.365Z,100434.28
2022-10-14T12:03:43.712Z,100424.13
2022-10-14T12:06:13.999Z,100424.88
2022-10-14T12:08:50.085Z,100420.44
2022-10-14T12:11:27.002Z,100422.41
2022-10-14T12:14:00.805Z,100415.47
2022-10-14T12:16:28.835Z,100417.94
2022-10-14T12:18:57.745Z,100418.97
2022-10-14T12:21:30.592Z,100428.56
2022-10-14T12:24:00.800Z,100411.50
2022-10-14T12:26:46.951Z,100407.31
2022-10-14T12:29:15.757Z,100398.50
2022-10-14T12:31:49.899Z,100399.19
2022-10-14T12:34:37.835Z,100393.88
2022-10-14T12:37:45.189Z,100388.53
2022-10-14T12:40:29.537Z,100383.09
2022-10-14T12:43:04.052Z,100377.41
2022-10-14T12:45:33.611Z,100386.31
2022-10-14T12:48:07.415Z,100387.66
2022-10-14T12:50:37.457Z,100388.09
2022-10-14T12:53:06.911Z,100382.34
2022-10-14T12:55:38.860Z,100383.53
2022-10-14T12:58:07.804Z,100389.75
2022-10-14T13:00:37.425Z,100386.72
2022-10-14T13:03:06.409Z,100388.53
2022-10-14T13:05:37.004Z,100373.31
2022-10-14T13:08:12.051Z,100376.00
2022-10-14T13:10:48.345Z,100370.53
2022-10-14T13:14:04.795Z,100374.53
2022-10-14T13:17:15.007Z,100367.84
2022-10-14T13:19:44.991Z,100374.03
2022-10-14T13:22:38.969Z,100369.91
2022-10-14T13:25:15.938Z,100373.03
2022-10-14T13:28:13.347Z,100351.56
2022-10-14T13:30:51.510Z,100352.81
2022-10-14T13:33:24.747Z,100340.63
2022-10-14T13:36:00.329Z,100340.91
2022-10-14T13:38:28.937Z,100330.41
2022-10-14T13:40:57.961Z,100344.38
2022-10-14T13:43:29.221Z,100336.97
2022-10-14T13:46:03.385Z,100328.72
2022-10-14T13:48:34.673Z,100329.16
2022-10-14T13:51:31.827Z,100321.97
2022-10-14T13:54:10.827Z,100323.47
2022-10-14T13:56:38.578Z,100316.66
2022-10-14T13:59:39.273Z,100316.66
2022-10-14T14:02:14.327Z,100315.63
2022-10-14T14:04:48.753Z,100320.94
2022-10-14T14:10:08.910Z,100312.66
2022-10-14T14:12:36.576Z,100311.25
2022-10-14T14:15:05.426Z,100309.41
2022-10-14T14:17:33.739Z,100307.69
2022-10-14T14:20:10.878Z,100295.88
2022-10-14T14:22:43.411Z,100286.13
2022-10-14T14:25:33.439Z,100288.28
2022-10-14T14:28:02.044Z,100284.56
2022-10-14T14:30:31.068Z,100278.47
2022-10-14T14:33:00.581Z,100287.09
2022-10-14T14:35:30.005Z,100282.66
2022-10-14T14:37:58.041Z,100279.41
2022-10-14T14:40:27.256Z,100269.13
2022-10-14T14:43:00.570Z,100258.84
2022-10-14T14:45:30.485Z,100251.09
2022-10-14T14:47:59.431Z,100249.47
2022-10-14T14:50:31.755Z,100241.41
2022-10-14T14:53:03.276Z,100247.53
2022-10-14T14:55:39.069Z,100247.97
2022-10-14T14:58:14.429Z,100246.84
2022-10-14T15:00:45.792Z,100246.84
2022-10-14T15:03:13.791Z,100245.19
2022-10-14T15:05:42.715Z,100244.38
2022-10-14T15:08:20.752Z,100250.69
2022-10-14T15:10:50.359Z,100239.00
2022-10-14T15:13:45.462Z,100247.13
2022-10-14T15:16:13.073Z,100248.84
2022-10-14T15:18:43.410Z,100241.47
2022-10-14T15:21:20.216Z,100242.22
2022-10-14T15:24:03.232Z,100239.75
2022-10-14T15:26:34.182Z,100236.03
2022-10-14T15:32:06.799Z,100231.25
2022-10-14T15:34:35.645Z,100231.69
2022-10-14T15:37:04.671Z,100234.38
2022-10-14T15:39:32.365Z,100227.84
2022-10-14T15:42:00.595Z,100221.97
2022-10-14T15:44:28.474Z,100216.72
2022-10-14T15:47:15.387Z,100217.16
2022-10-14T15:49:45.950Z,100215.03
2022-10-14T15:52:18.511Z,100216.38
2022-10-14T15:54:48.876Z,100207.28
2022-10-14T15:57:16.946Z,100204.59
2022-10-14T15:59:44.714Z,100216.38
2022-10-14T16:02:16.100Z,100202.97
2022-10-14T16:05:00.557Z,100197.81
2022-10-14T16:07:32.677Z,100190.72
2022-10-14T16:10:00.334Z,100195.66
2022-10-14T16:12:27.942Z,100189.56
2022-10-14T16:14:55.475Z,100191.00
2022-10-14T16:17:23.283Z,100193.69
2022-10-14T16:19:50.923Z,100193.47
2022-10-14T16:22:18.388Z,100194.59
2022-10-14T16:24:47.297Z,100193.41
2022-10-14T16:27:14.782Z,100187.00
2022-10-14T16:29:42.369Z,100180.06
2022-10-14T16:32:10.531Z,100184.19
2022-10-14T16:34:38.095Z,100178.66
2022-10-14T16:37:07.003Z,100173.91
2022-10-14T16:39:34.482Z,100173.31
2022-10-14T16:42:03.383Z,100170.63
2022-10-14T16:44:31.074Z,100174.34
2022-10-14T16:47:13.284Z,100163.41
2022-10-14T16:49:41.304Z,100175.41
2022-10-14T16:52:09.494Z,100163.19
2022-10-14T16:54:37.366Z,100167.66
2022-10-14T16:57:07.068Z,100166.53
2022-10-14T16:59:37.871Z,100166.22
2022-10-14T17:02:06.088Z,100176.13
2022-10-14T17:04:33.701Z,100176.06
2022-10-14T17:07:07.094Z,100181.25
2022-10-14T17:09:35.838Z,100186.03
2022-10-14T17:12:05.004Z,100184.63
2022-10-14T17:14:34.877Z,100186.25
2022-10-14T17:17:02.448Z,100176.13
2022-10-14T17:19:31.073Z,100178.63
2022-10-14T17:21:59.552Z,100182.97
2022-10-14T17:24:27.491Z,100183.56
2022-10-14T17:26:55.142Z,100180.53
2022-10-14T17:29:22.825Z,100175.16
2022-10-14T17:31:51.942Z,100184.63
2022-10-14T17:34:19.555Z,100184.84
2022-10-14T17:36:47.135Z,100184.84
2022-10-14T17:39:22.807Z,100187.72
2022-10-14T17:41:56.890Z,100173.88
2022-10-14T17:44:24.614Z,100188.34
2022-10-14T17:46:54.029Z,100178.88
2022-10-14T17:49:21.986Z,100181.94
2022-10-14T17:51:49.844Z,100192.66
2022-10-14T17:54:17.475Z,100189.75
2022-10-14T17:56:45.159Z,100186.03
2022-10-14T17:59:14.073Z,100180.09
2022-10-14T18:04:30.721Z,100178.19
2022-10-14T18:06:58.880Z,100171.66
2022-10-14T18:09:26.428Z,100170.75
2022-10-14T18:12:08.332Z,100180.44
2022-10-14T18:14:36.569Z,100175.97
2022-10-14T18:17:05.021Z,100179.09
2022-10-14T18:19:34.922Z,100181.78
2022-10-14T18:22:02.757Z,100173.84
2022-10-14T18:24:30.525Z,100173.59
2022-10-14T18:26:58.143Z,100163.19
2022-10-14T18:29:26.008Z,100162.88
2022-10-14T18:31:53.700Z,100157.97
2022-10-14T18:34:22.376Z,100160.66
2022-10-14T18:36:51.399Z,100157.75
2022-10-14T18:39:20.220Z,100157.97
2022-10-14T18:41:47.815Z,100154.69
2022-10-14T18:44:15.492Z,100153.84
2022-10-14T18:46:43.143Z,100146.47
2022-10-14T18:49:12.354Z,100145.44
2022-10-14T18:51:41.206Z,100139.66
2022-10-14T18:54:13.725Z,100141.94
2022-10-14T18:56:41.807Z,100149.31
2022-10-14T18:59:11.062Z,100139.03
2022-10-14T19:01:39.416Z,100156.75
2022-10-14T19:04:08.558Z,100150.59
2022-10-14T19:06:37.068Z,100146.84
2022-10-14T19:09:05.388Z,100133.69
2022-10-14T19:11:35.542Z,100133.97
2022-10-14T19:14:05.217Z,100131.59
2022-10-14T19:16:33.930Z,100121.91
2022-10-14T19:19:03.975Z,100133.22
2022-10-14T19:21:32.275Z,100120.72
2022-10-14T19:24:01.514Z,100111.34
2022-10-14T19:26:30.947Z,100113.19
2022-10-14T19:29:01.120Z,100110.84
2022-10-14T19:31:30.801Z,100111.50
2022-10-14T19:33:58.939Z,100101.56
2022-10-14T19:36:27.181Z,100103.00
2022-10-14T19:38:57.793Z,100102.84
2022-10-14T19:41:26.220Z,100108.00
2022-10-14T19:43:54.462Z,100111.13
2022-10-14T19:46:27.146Z,100100.78
2022-10-14T19:48:56.752Z,100098.53
2022-10-14T19:51:24.603Z,100091.06
2022-10-14T19:53:52.477Z,100098.75
2022-10-14T19:56:20.662Z,100102.19
2022-10-14T19:58:51.108Z,100101.78
2022-10-14T20:01:19.589Z,100102.03
2022-10-14T20:03:48.622Z,100099.13
2022-10-14T20:06:16.506Z,100097.50
2022-10-14T20:08:45.379Z,100092.19
2022-10-14T20:11:15.111Z,100085.88
2022-10-14T20:13:44.356Z,100092.41
2022-10-14T20:16:12.727Z,100092.28
2022-10-14T20:18:40.435Z,100090.78
2022-10-14T20:21:11.768Z,100088.78
2022-10-14T20:23:40.340Z,100091.47
2022-10-14T20:26:09.698Z,100094.06
2022-10-14T20:28:37.743Z,100089.16
2022-10-14T20:31:07.119Z,100089.00
2022-10-14T20:33:34.744Z,100076.88
2022-10-14T20:36:02.852Z,100079.25
2022-10-14T20:38:32.044Z,100076.50
2022-10-14T20:41:04.711Z,100061.75
2022-10-14T20:43:32.256Z,100062.81
2022-10-14T20:45:59.886Z,100066.97
2022-10-14T20:48:27.532Z,100063.75
2022-10-14T20:50:55.107Z,100060.41
2022-10-14T20:53:22.755Z,100055.94
2022-10-14T20:55:51.778Z,100049.69
2022-10-14T20:58:20.867Z,100051.78
2022-10-14T21:00:48.497Z,100041.13
2022-10-14T21:03:16.351Z,100036.50
2022-10-14T21:05:44.979Z,100038.63
2022-10-14T21:08:12.642Z,100036.00
2022-10-14T21:10:40.547Z,100030.81
2022-10-14T21:13:09.483Z,100030.19
2022-10-14T21:15:37.021Z,100030.94
2022-10-14T21:18:04.768Z,100034.06
2022-10-14T21:20:35.422Z,100032.06
2022-10-14T21:23:02.999Z,100030.66
2022-10-14T21:25:30.601Z,100031.09
2022-10-14T21:27:58.177Z,100016.97
2022-10-14T21:30:27.175Z,100020.59
2022-10-14T21:32:54.747Z,100028.03
2022-10-14T21:35:22.313Z,100017.69
2022-10-14T21:37:49.810Z,100021.78
2022-10-14T21:40:17.465Z,100017.84
2022-10-14T21:42:45.060Z,100014.56
2022-10-14T21:45:12.648Z,100011.44
2022-10-14T21:47:41.653Z,100012.94
2022-10-14T21:50:10.015Z,100008.81
2022-10-14T21:52:37.595Z,100003.25
2022-10-14T21:55:05.715Z,100003.25
2022-10-14T21:57:33.290Z,99995.13
2022-10-14T22:00:00.852Z,100002.78
2022-10-14T22:02:28.443Z,99994.53
2022-10-14T22:04:57.362Z,99997.75
2022-10-14T22:07:25.403Z,99994.69
2022-10-14T22:09:53.256Z,99983.09
2022-10-14T22:12:20.769Z,99974.22
2022-10-14T22:14:48.300Z,99980.69
2022-10-14T22:17:16.115Z,99979.66
2022-10-14T22:19:43.698Z,99979.06
2022-10-14T22:22:12.623Z,99970.75
2022-10-14T22:24:40.248Z,99968.72
2022-10-14T22:27:07.830Z,99967.97
2022-10-14T22:29:35.509Z,99969.50
2022-10-14T22:32:02.998Z,99970.19
2022-10-14T22:34:30.532Z,99966.50
2022-10-14T22:36:59.472Z,99966.03
2022-10-14T22:39:28.414Z,99958.78
2022-10-14T22:41:56.000Z,99964.38
2022-10-14T22:44:23.521Z,99956.56
2022-10-14T22:46:51.081Z,99951.88
2022-10-14T22:49:18.720Z,99960.69
2022-10-14T22:51:46.322Z,99959.25
2022-10-14T22:54:13.837Z,99952.25
2022-10-14T22:56:42.857Z,99952.75
2022-10-14T22:59:11.698Z,99940.97
2022-10-14T23:01:45.420Z,99941.34
2022-10-14T23:04:13.005Z,99956.50
2022-10-14T23:06:43.627Z,99950.22
2022-10-14T23:09:11.464Z,99952.31
2022-10-14T23:11:39.270Z,99936.56
2022-10-14T23:14:08.379Z,99944.22
2022-10-14T23:16:36.243Z,99930.59
2022-10-14T23:19:04.136Z,99919.66
2022-10-14T23:21:32.826Z,99925.13
2022-10-14T23:24:02.104Z,99923.28
2022-10-14T23:26:33.073Z,99934.91
2022-10-14T23:29:01.694Z,99936.25
2022-10-14T23:31:38.051Z,99936.19
2022-10-14T23:34:08.030Z,99933.13
2022-10-14T23:36:35.634Z,99927.31
2022-10-14T23:39:03.761Z,99926.97
2022-10-14T23:41:31.376Z,99920.56
2022-10-14T23:43:58.913Z,99904.63
2022-10-14T23:46:26.510Z,99896.00
2022-10-14T23:49:07.460Z,99903.09
2022-10-14T23:51:48.702Z,99896.28
2022-10-14T23:54:16.313Z,99912.75
2022-10-14T23:56:43.800Z,99909.91
2022-10-14T23:59:11.574Z,99914.59
